createdAt,value
2017-10-20T00:00:03.392Z,16.8
2017-10-20T00:01:05.878Z,16.8
2017-10-20T00:02:08.241Z,16.8
2017-10-20T00:03:10.625Z,16.8
2017-10-20T00:04:13.018Z,16.8
2017-10-20T00:05:15.599Z,16.8
2017-10-20T00:06:17.987Z,16.8
2017-10-20T00:07:20.369Z,16.8
2017-10-20T00:08:22.763Z,16.8
2017-10-20T00:09:25.149Z,16.8
2017-10-20T00:10:27.511Z,16.8
2017-10-20T00:11:30.003Z,16.8
2017-10-20T00:12:32.553Z,16.8
2017-10-20T00:13:34.923Z,16.8
2017-10-20T00:14:37.303Z,16.8
2017-10-20T00:15:39.694Z,16.8
2017-10-20T00:16:42.062Z,16.8
2017-10-20T00:17:44.440Z,16.8
2017-10-20T00:18:46.821Z,16.8
2017-10-20T00:19:49.217Z,16.9
2017-10-20T00:20:51.815Z,16.8
2017-10-20T00:21:54.246Z,16.9
2017-10-20T00:22:56.615Z,16.8
2017-10-20T00:23:58.998Z,16.8
2017-10-20T00:25:01.387Z,16.8
2017-10-20T00:26:04.276Z,16.8
2017-10-20T00:27:06.670Z,16.8
2017-10-20T00:28:09.097Z,16.8
2017-10-20T00:29:11.494Z,16.8
2017-10-20T00:30:13.870Z,16.8
2017-10-20T00:31:16.472Z,16.8
2017-10-20T00:32:18.837Z,16.8
2017-10-20T00:33:21.260Z,16.7
2017-10-20T00:34:23.664Z,16.7
2017-10-20T00:35:26.056Z,16.7
2017-10-20T00:36:28.601Z,16.7
2017-10-20T00:37:30.978Z,16.7
2017-10-20T00:38:33.406Z,16.7
2017-10-20T00:39:36.482Z,16.7
2017-10-20T00:40:38.896Z,16.7
2017-10-20T00:41:41.285Z,16.7
2017-10-20T00:42:43.685Z,16.6
2017-10-20T00:43:46.072Z,16.6
2017-10-20T00:44:48.446Z,16.6
2017-10-20T00:45:50.810Z,16.6
2017-10-20T00:46:53.220Z,16.5
2017-10-20T00:47:55.603Z,16.5
2017-10-20T00:48:57.979Z,16.5
2017-10-20T00:50:00.355Z,16.5
2017-10-20T00:51:02.925Z,16.5
2017-10-20T00:52:05.340Z,16.5
2017-10-20T00:53:07.768Z,16.5
2017-10-20T00:54:10.138Z,16.5
2017-10-20T00:55:12.712Z,16.5
2017-10-20T00:56:15.081Z,16.5
2017-10-20T00:57:17.481Z,16.4
2017-10-20T00:58:19.894Z,16.4
2017-10-20T00:59:22.270Z,16.4
2017-10-20T01:00:24.695Z,16.4
2017-10-20T01:01:27.072Z,16.4
2017-10-20T01:02:29.471Z,16.4
2017-10-20T01:03:31.860Z,16.4
2017-10-20T01:04:34.255Z,16.4
2017-10-20T01:05:36.782Z,16.4
2017-10-20T01:06:39.159Z,16.4
2017-10-20T01:07:41.905Z,16.4
2017-10-20T01:08:44.275Z,16.4
2017-10-20T01:09:46.648Z,16.4
2017-10-20T01:10:49.071Z,16.4
2017-10-20T01:11:51.858Z,16.3
2017-10-20T01:12:54.240Z,16.3
2017-10-20T01:13:56.617Z,16.3
2017-10-20T01:14:59.488Z,16.3
2017-10-20T01:16:01.858Z,16.3
2017-10-20T01:17:04.224Z,16.3
2017-10-20T01:18:06.605Z,16.3
2017-10-20T01:19:09.201Z,16.3
2017-10-20T01:20:11.607Z,16.3
2017-10-20T01:21:13.985Z,16.3
2017-10-20T01:22:16.361Z,16.3
2017-10-20T01:23:18.731Z,16.3
2017-10-20T01:24:21.379Z,16.2
2017-10-20T01:25:23.771Z,16.2
2017-10-20T01:26:26.156Z,16.2
2017-10-20T01:27:28.554Z,16.2
2017-10-20T01:28:30.928Z,16.2
2017-10-20T01:29:33.426Z,16.2
2017-10-20T01:30:35.850Z,16.2
2017-10-20T01:31:38.217Z,16.2
2017-10-20T01:32:40.606Z,16.1
2017-10-20T01:33:43.020Z,16.1
2017-10-20T01:34:45.417Z,16.1
2017-10-20T01:35:48.159Z,16.1
2017-10-20T01:36:50.534Z,16.1
2017-10-20T01:37:52.958Z,16.1
2017-10-20T01:38:55.576Z,16.1
2017-10-20T01:39:57.943Z,16.1
2017-10-20T01:41:00.309Z,16.1
2017-10-20T01:42:02.686Z,16.1
2017-10-20T01:43:05.284Z,16
2017-10-20T01:44:07.688Z,16
2017-10-20T01:45:10.053Z,16
2017-10-20T01:46:12.427Z,16
2017-10-20T01:47:14.800Z,16
2017-10-20T01:48:17.206Z,16
2017-10-20T01:49:19.586Z,16
2017-10-20T01:50:21.963Z,15.9
2017-10-20T01:51:24.377Z,15.9
2017-10-20T01:52:26.761Z,15.9
2017-10-20T01:53:29.234Z,15.9
2017-10-20T01:54:31.617Z,15.8
2017-10-20T01:55:34.003Z,15.8
2017-10-20T01:56:36.402Z,15.8
2017-10-20T01:57:38.975Z,15.8
2017-10-20T01:58:41.341Z,15.8
2017-10-20T01:59:43.709Z,15.8
2017-10-20T02:00:46.126Z,15.8
2017-10-20T02:01:48.550Z,15.8
2017-10-20T02:02:50.925Z,15.8
2017-10-20T02:03:53.653Z,15.8
2017-10-20T02:04:56.041Z,15.8
2017-10-20T02:05:58.408Z,15.8
2017-10-20T02:07:00.803Z,15.8
2017-10-20T02:08:03.323Z,15.8
2017-10-20T02:09:05.730Z,15.7
2017-10-20T02:10:08.156Z,15.7
2017-10-20T02:11:10.519Z,15.7
2017-10-20T02:12:13.062Z,15.7
2017-10-20T02:13:15.443Z,15.7
2017-10-20T02:14:17.829Z,15.7
2017-10-20T02:15:20.245Z,15.6
2017-10-20T02:16:22.602Z,15.6
2017-10-20T02:17:24.983Z,15.6
2017-10-20T02:18:27.718Z,15.6
2017-10-20T02:19:30.128Z,15.6
2017-10-20T02:20:32.605Z,15.6
2017-10-20T02:21:35.241Z,15.6
2017-10-20T02:22:37.617Z,15.7
2017-10-20T02:23:39.999Z,15.6
2017-10-20T02:24:42.384Z,15.7
2017-10-20T02:25:44.786Z,15.6
2017-10-20T02:26:47.162Z,15.6
2017-10-20T02:27:49.597Z,15.7
2017-10-20T02:28:51.971Z,15.6
2017-10-20T02:29:54.364Z,15.7
2017-10-20T02:30:56.755Z,15.6
2017-10-20T02:31:59.704Z,15.6
2017-10-20T02:33:02.089Z,15.7
2017-10-20T02:34:04.490Z,15.6
2017-10-20T02:35:07.223Z,15.6
2017-10-20T02:36:09.676Z,15.6
2017-10-20T02:37:12.421Z,15.6
2017-10-20T02:38:14.801Z,15.6
2017-10-20T02:39:17.177Z,15.6
2017-10-20T02:40:19.589Z,15.5
2017-10-20T02:41:22.048Z,15.5
2017-10-20T02:42:24.427Z,15.5
2017-10-20T02:43:27.227Z,15.5
2017-10-20T02:44:29.603Z,15.5
2017-10-20T02:45:31.970Z,15.5
2017-10-20T02:46:34.358Z,15.5
2017-10-20T02:47:36.732Z,15.5
2017-10-20T02:48:39.110Z,15.5
2017-10-20T02:49:41.482Z,15.5
2017-10-20T02:50:43.860Z,15.5
2017-10-20T02:51:46.239Z,15.5
2017-10-20T02:52:48.639Z,15.5
2017-10-20T02:53:51.021Z,15.5
2017-10-20T02:54:53.396Z,15.5
2017-10-20T02:55:55.817Z,15.5
2017-10-20T02:56:58.204Z,15.5
2017-10-20T02:58:00.609Z,15.6
2017-10-20T02:59:03.003Z,15.5
2017-10-20T03:00:05.378Z,15.5
2017-10-20T03:01:07.772Z,15.6
2017-10-20T03:02:10.188Z,15.5
2017-10-20T03:03:12.608Z,15.6
2017-10-20T03:04:15.006Z,15.6
2017-10-20T03:05:17.385Z,15.6
2017-10-20T03:06:19.740Z,15.5
2017-10-20T03:07:22.120Z,15.6
2017-10-20T03:08:24.499Z,15.5
2017-10-20T03:09:26.914Z,15.5
2017-10-20T03:10:29.331Z,15.6
2017-10-20T03:11:31.722Z,15.5
2017-10-20T03:12:34.135Z,15.6
2017-10-20T03:13:36.498Z,15.5
2017-10-20T03:14:38.880Z,15.5
2017-10-20T03:15:41.258Z,15.5
2017-10-20T03:16:43.631Z,15.5
2017-10-20T03:17:46.003Z,15.5
2017-10-20T03:18:48.365Z,15.5
2017-10-20T03:19:50.748Z,15.5
2017-10-20T03:20:53.847Z,15.5
2017-10-20T03:21:56.238Z,15.5
2017-10-20T03:22:58.617Z,15.5
2017-10-20T03:24:00.994Z,15.5
2017-10-20T03:25:03.366Z,15.5
2017-10-20T03:26:05.746Z,15.5
2017-10-20T03:27:08.126Z,15.5
2017-10-20T03:28:10.495Z,15.5
2017-10-20T03:29:13.619Z,15.5
2017-10-20T03:30:16.026Z,15.5
2017-10-20T03:31:18.394Z,15.5
2017-10-20T03:32:20.786Z,15.5
2017-10-20T03:33:23.172Z,15.5
2017-10-20T03:34:25.562Z,15.6
2017-10-20T03:35:27.976Z,15.5
2017-10-20T03:36:30.352Z,15.5
2017-10-20T03:37:32.751Z,15.5
2017-10-20T03:38:35.140Z,15.5
2017-10-20T03:39:37.551Z,15.5
2017-10-20T03:40:40.324Z,15.5
2017-10-20T03:41:42.789Z,15.5
2017-10-20T03:42:45.159Z,15.5
2017-10-20T03:43:47.558Z,15.5
2017-10-20T03:44:49.937Z,15.5
2017-10-20T03:45:52.321Z,15.4
2017-10-20T03:46:54.712Z,15.4
2017-10-20T03:47:57.086Z,15.5
2017-10-20T03:48:59.489Z,15.4
2017-10-20T03:50:02.210Z,15.4
2017-10-20T03:51:04.801Z,15.4
2017-10-20T03:52:07.519Z,15.4
2017-10-20T03:53:09.930Z,15.4
2017-10-20T03:54:12.287Z,15.4
2017-10-20T03:55:14.678Z,15.4
2017-10-20T03:56:17.074Z,15.4
2017-10-20T03:57:19.460Z,15.4
2017-10-20T03:58:21.892Z,15.4
2017-10-20T03:59:24.263Z,15.4
2017-10-20T04:00:26.684Z,15.4
2017-10-20T04:01:29.067Z,15.4
2017-10-20T04:02:31.466Z,15.4
2017-10-20T04:03:33.885Z,15.4
2017-10-20T04:04:36.263Z,15.4
2017-10-20T04:05:38.677Z,15.5
2017-10-20T04:06:41.052Z,15.5
2017-10-20T04:07:43.460Z,15.5
2017-10-20T04:08:45.887Z,15.5
2017-10-20T04:09:48.264Z,15.5
2017-10-20T04:10:50.662Z,15.4
2017-10-20T04:11:53.036Z,15.4
2017-10-20T04:12:55.779Z,15.4
2017-10-20T04:13:58.172Z,15.4
2017-10-20T04:15:00.546Z,15.4
2017-10-20T04:16:02.958Z,15.4
2017-10-20T04:17:05.338Z,15.4
2017-10-20T04:18:07.770Z,15.3
2017-10-20T04:19:10.185Z,15.3
2017-10-20T04:20:12.561Z,15.3
2017-10-20T04:21:14.974Z,15.3
2017-10-20T04:22:17.772Z,15.3
2017-10-20T04:23:20.179Z,15.3
2017-10-20T04:24:22.575Z,15.4
2017-10-20T04:25:24.983Z,15.4
2017-10-20T04:26:27.358Z,15.4
2017-10-20T04:27:29.778Z,15.4
2017-10-20T04:28:32.149Z,15.4
2017-10-20T04:29:34.912Z,15.4
2017-10-20T04:30:37.372Z,15.4
2017-10-20T04:31:40.168Z,15.4
2017-10-20T04:32:42.555Z,15.4
2017-10-20T04:33:44.966Z,15.4
2017-10-20T04:34:47.768Z,15.4
2017-10-20T04:35:50.150Z,15.3
2017-10-20T04:36:52.556Z,15.3
2017-10-20T04:37:54.980Z,15.3
2017-10-20T04:38:57.350Z,15.3
2017-10-20T04:39:59.772Z,15.3
2017-10-20T04:41:02.574Z,15.3
2017-10-20T04:42:04.935Z,15.3
2017-10-20T04:43:07.365Z,15.4
2017-10-20T04:44:09.753Z,15.4
2017-10-20T04:45:12.157Z,15.3
2017-10-20T04:46:14.582Z,15.3
2017-10-20T04:47:16.944Z,15.3
2017-10-20T04:48:19.366Z,15.3
2017-10-20T04:49:21.742Z,15.3
2017-10-20T04:50:24.120Z,15.3
2017-10-20T04:51:26.484Z,15.3
2017-10-20T04:52:28.864Z,15.3
2017-10-20T04:53:31.224Z,15.3
2017-10-20T04:54:33.597Z,15.3
2017-10-20T04:55:36.165Z,15.2
2017-10-20T04:56:38.562Z,15.2
2017-10-20T04:57:40.922Z,15.2
2017-10-20T04:58:43.298Z,15.2
2017-10-20T04:59:45.664Z,15.2
2017-10-20T05:00:48.055Z,15.2
2017-10-20T05:01:50.639Z,15.2
2017-10-20T05:02:52.995Z,15.2
2017-10-20T05:03:55.368Z,15.2
2017-10-20T05:04:57.755Z,15.2
2017-10-20T05:06:00.125Z,15.2
2017-10-20T05:07:02.858Z,15.2
2017-10-20T05:08:05.223Z,15.2
2017-10-20T05:09:07.599Z,15.2
2017-10-20T05:10:09.962Z,15.2
2017-10-20T05:11:12.343Z,15.2
2017-10-20T05:12:15.004Z,15.2
2017-10-20T05:13:17.748Z,15.2
2017-10-20T05:14:20.135Z,15.2
2017-10-20T05:15:22.506Z,15.2
2017-10-20T05:16:25.147Z,15.2
2017-10-20T05:17:27.520Z,15.2
2017-10-20T05:18:29.890Z,15.2
2017-10-20T05:19:32.256Z,15.2
2017-10-20T05:20:34.633Z,15.2
2017-10-20T05:21:37.297Z,15.2
2017-10-20T05:22:39.667Z,15.1
2017-10-20T05:23:42.040Z,15.1
2017-10-20T05:24:44.410Z,15.1
2017-10-20T05:25:46.786Z,15.1
2017-10-20T05:26:49.163Z,15.1
2017-10-20T05:27:51.837Z,15.1
2017-10-20T05:28:54.199Z,15.1
2017-10-20T05:29:57.671Z,15.1
2017-10-20T05:31:00.046Z,15.1
2017-10-20T05:32:02.421Z,15.1
2017-10-20T05:33:05.180Z,15.1
2017-10-20T05:34:08.219Z,15.1
2017-10-20T05:35:10.592Z,15.1
2017-10-20T05:36:12.975Z,15.1
2017-10-20T05:37:15.686Z,15.1
2017-10-20T05:38:18.068Z,15.1
2017-10-20T05:39:20.726Z,15
2017-10-20T05:40:23.101Z,15.1
2017-10-20T05:41:25.814Z,15.1
2017-10-20T05:42:28.541Z,15.1
2017-10-20T05:43:30.910Z,15.1
2017-10-20T05:44:33.290Z,15.1
2017-10-20T05:45:35.656Z,15.2
2017-10-20T05:46:38.283Z,15.1
2017-10-20T05:47:40.661Z,15.1
2017-10-20T05:48:43.409Z,15.1
2017-10-20T05:49:45.763Z,15.1
2017-10-20T05:50:48.150Z,15.1
2017-10-20T05:51:50.512Z,15.1
2017-10-20T05:52:52.901Z,15.1
2017-10-20T05:53:55.527Z,15.1
2017-10-20T05:54:57.904Z,15.1
2017-10-20T05:56:00.466Z,15
2017-10-20T05:57:02.846Z,15
2017-10-20T05:58:05.208Z,15.1
2017-10-20T05:59:07.606Z,15
2017-10-20T06:00:09.960Z,15.1
2017-10-20T06:01:12.395Z,15.1
2017-10-20T06:02:14.771Z,15
2017-10-20T06:03:17.185Z,15.1
2017-10-20T06:04:19.814Z,15.1
2017-10-20T06:05:22.201Z,15.1
2017-10-20T06:06:24.570Z,15.1
2017-10-20T06:07:26.944Z,15.1
2017-10-20T06:08:29.659Z,15.1
2017-10-20T06:09:32.771Z,15.1
2017-10-20T06:10:35.131Z,15.1
2017-10-20T06:11:37.503Z,15.1
2017-10-20T06:12:39.873Z,15.2
2017-10-20T06:13:42.557Z,15.2
2017-10-20T06:14:44.925Z,15.2
2017-10-20T06:15:47.305Z,15.2
2017-10-20T06:16:49.675Z,15.2
2017-10-20T06:17:52.097Z,15.2
2017-10-20T06:18:54.481Z,15.2
2017-10-20T06:19:56.858Z,15.2
2017-10-20T06:20:59.238Z,15.2
2017-10-20T06:22:01.628Z,15.2
2017-10-20T06:23:03.998Z,15.2
2017-10-20T06:24:06.388Z,15.2
2017-10-20T06:25:08.762Z,15.2
2017-10-20T06:26:11.144Z,15.2
2017-10-20T06:27:13.516Z,15.2
2017-10-20T06:28:15.896Z,15.3
2017-10-20T06:29:18.273Z,15.3
2017-10-20T06:30:21.063Z,15.3
2017-10-20T06:31:23.421Z,15.3
2017-10-20T06:32:25.794Z,15.3
2017-10-20T06:33:28.183Z,15.3
2017-10-20T06:34:30.866Z,15.3
2017-10-20T06:35:33.238Z,15.3
2017-10-20T06:36:35.608Z,15.3
2017-10-20T06:37:38.039Z,15.4
2017-10-20T06:38:40.505Z,15.4
2017-10-20T06:39:42.902Z,15.4
2017-10-20T06:40:45.263Z,15.5
2017-10-20T06:41:48.041Z,15.5
2017-10-20T06:42:50.411Z,15.5
2017-10-20T06:43:52.799Z,15.5
2017-10-20T06:44:55.171Z,15.6
2017-10-20T06:45:57.797Z,15.6
2017-10-20T06:47:00.176Z,15.7
2017-10-20T06:48:02.563Z,15.7
2017-10-20T06:49:05.364Z,15.7
2017-10-20T06:50:07.905Z,15.7
2017-10-20T06:51:10.291Z,15.7
2017-10-20T06:52:12.677Z,15.7
2017-10-20T06:53:15.054Z,15.8
2017-10-20T06:54:17.656Z,15.8
2017-10-20T06:55:20.049Z,15.8
2017-10-20T06:56:22.423Z,15.8
2017-10-20T06:57:24.997Z,15.8
2017-10-20T06:58:27.754Z,15.8
2017-10-20T06:59:30.667Z,15.9
2017-10-20T07:00:34.406Z,15.9
2017-10-20T07:01:36.832Z,15.9
2017-10-20T07:02:39.243Z,15.9
2017-10-20T07:03:44.656Z,15.9
2017-10-20T07:04:53.042Z,16
2017-10-20T07:06:01.697Z,15.9
2017-10-20T07:07:12.235Z,16
2017-10-20T07:08:22.359Z,16
2017-10-20T07:09:32.121Z,16
2017-10-20T07:10:42.262Z,16
2017-10-20T07:11:49.267Z,16.1
2017-10-20T07:13:01.521Z,16.1
2017-10-20T07:14:13.306Z,16.2
2017-10-20T07:15:25.630Z,16.2
2017-10-20T07:16:37.946Z,16.3
2017-10-20T07:17:51.000Z,16.4
2017-10-20T07:19:17.276Z,16.5
2017-10-20T07:20:28.001Z,16.6
2017-10-20T07:21:38.664Z,16.7
2017-10-20T07:22:49.599Z,16.9
2017-10-20T07:24:00.083Z,17
2017-10-20T07:25:11.238Z,17.1
2017-10-20T07:26:21.690Z,17.2
2017-10-20T07:27:28.829Z,17.3
2017-10-20T07:28:31.225Z,17.4
2017-10-20T07:29:33.671Z,17.5
2017-10-20T07:30:36.078Z,17.6
2017-10-20T07:31:38.464Z,17.7
2017-10-20T07:32:40.980Z,17.8
2017-10-20T07:33:43.864Z,17.8
2017-10-20T07:34:46.324Z,17.9
2017-10-20T07:35:49.086Z,17.9
2017-10-20T07:36:51.827Z,18
2017-10-20T07:37:54.204Z,18
2017-10-20T07:38:56.618Z,18
2017-10-20T07:39:59.015Z,18
2017-10-20T07:41:01.421Z,18
2017-10-20T07:42:04.172Z,18
2017-10-20T07:43:06.661Z,18
2017-10-20T07:44:09.040Z,18
2017-10-20T07:45:11.833Z,17.9
2017-10-20T07:46:14.193Z,17.9
2017-10-20T07:47:16.570Z,17.9
2017-10-20T07:48:19.392Z,17.9
2017-10-20T07:49:21.765Z,17.9
2017-10-20T07:50:24.151Z,17.8
2017-10-20T07:51:26.529Z,17.8
2017-10-20T07:52:29.026Z,17.8
2017-10-20T07:53:31.792Z,17.7
2017-10-20T07:54:34.167Z,17.7
2017-10-20T07:55:36.553Z,17.7
2017-10-20T07:56:39.146Z,17.7
2017-10-20T07:57:41.867Z,17.6
2017-10-20T07:58:44.275Z,17.6
2017-10-20T07:59:47.228Z,17.6
2017-10-20T08:00:49.674Z,17.6
2017-10-20T08:01:52.043Z,17.5
2017-10-20T08:02:54.506Z,17.5
2017-10-20T08:03:56.900Z,17.5
2017-10-20T08:04:59.294Z,17.4
2017-10-20T08:06:01.681Z,17.4
2017-10-20T08:07:04.434Z,17.4
2017-10-20T08:08:07.097Z,17.4
2017-10-20T08:09:09.492Z,17.3
2017-10-20T08:10:11.857Z,17.3
2017-10-20T08:11:14.233Z,17.3
2017-10-20T08:12:16.867Z,17.3
2017-10-20T08:13:19.305Z,17.3
2017-10-20T08:14:21.684Z,17.3
2017-10-20T08:15:24.342Z,17.3
2017-10-20T08:16:26.742Z,17.3
2017-10-20T08:17:29.134Z,17.4
2017-10-20T08:18:31.525Z,17.4
2017-10-20T08:19:34.202Z,17.5
2017-10-20T08:20:36.646Z,17.5
2017-10-20T08:21:39.026Z,17.5
2017-10-20T08:22:41.425Z,17.5
2017-10-20T08:23:44.123Z,17.5
2017-10-20T08:24:46.518Z,17.5
2017-10-20T08:25:48.950Z,17.5
2017-10-20T08:26:51.333Z,17.5
2017-10-20T08:27:53.711Z,17.5
2017-10-20T08:28:56.097Z,17.5
2017-10-20T08:29:58.498Z,17.5
2017-10-20T08:31:00.943Z,17.5
2017-10-20T08:32:03.334Z,17.5
2017-10-20T08:33:05.712Z,17.6
2017-10-20T08:34:08.124Z,17.5
2017-10-20T08:35:10.573Z,17.6
2017-10-20T08:36:12.971Z,17.6
2017-10-20T08:37:15.625Z,17.7
2017-10-20T08:38:18.127Z,17.7
2017-10-20T08:39:20.514Z,17.7
2017-10-20T08:40:22.896Z,17.7
2017-10-20T08:41:25.319Z,17.7
2017-10-20T08:42:27.687Z,17.7
2017-10-20T08:43:30.070Z,17.7
2017-10-20T08:44:32.466Z,17.8
2017-10-20T08:45:34.834Z,17.8
2017-10-20T08:46:37.217Z,17.8
2017-10-20T08:47:39.637Z,17.9
2017-10-20T08:48:42.017Z,17.9
2017-10-20T08:49:44.454Z,17.9
2017-10-20T08:50:46.875Z,17.9
2017-10-20T08:51:49.237Z,18
2017-10-20T08:52:51.655Z,18
2017-10-20T08:53:54.042Z,18
2017-10-20T08:54:56.446Z,18
2017-10-20T08:55:59.210Z,18
2017-10-20T08:57:01.602Z,18
2017-10-20T08:58:04.039Z,18
2017-10-20T08:59:06.521Z,18
2017-10-20T09:00:09.265Z,18
2017-10-20T09:01:11.705Z,18
2017-10-20T09:02:14.136Z,18
2017-10-20T09:03:16.517Z,18
2017-10-20T09:04:18.939Z,18
2017-10-20T09:05:21.353Z,18
2017-10-20T09:06:23.797Z,18
2017-10-20T09:07:26.236Z,18
2017-10-20T09:08:29.016Z,18
2017-10-20T09:09:31.467Z,18
2017-10-20T09:10:33.909Z,18
2017-10-20T09:11:36.337Z,18
2017-10-20T09:12:38.788Z,18
2017-10-20T09:13:41.216Z,18
2017-10-20T09:14:43.676Z,18
2017-10-20T09:15:46.117Z,18
2017-10-20T09:16:48.679Z,18
2017-10-20T09:17:51.121Z,18
2017-10-20T09:18:53.908Z,18
2017-10-20T09:19:56.396Z,18
2017-10-20T09:20:58.874Z,18
2017-10-20T09:22:01.311Z,18
2017-10-20T09:23:03.740Z,18
2017-10-20T09:24:06.168Z,18
2017-10-20T09:25:08.670Z,18
2017-10-20T09:26:11.158Z,18
2017-10-20T09:27:13.597Z,18
2017-10-20T09:28:16.090Z,18.1
2017-10-20T09:29:18.539Z,18.1
2017-10-20T09:30:21.004Z,18.1
2017-10-20T09:31:26.470Z,18.1
2017-10-20T09:32:28.902Z,18.1
2017-10-20T09:33:31.335Z,18.1
2017-10-20T09:34:33.781Z,18.1
2017-10-20T09:35:36.204Z,18.1
2017-10-20T09:36:38.639Z,18.2
2017-10-20T09:37:41.439Z,18.2
2017-10-20T09:38:43.868Z,18.2
2017-10-20T09:39:46.297Z,18.2
2017-10-20T09:40:48.730Z,18.3
2017-10-20T09:41:51.168Z,18.3
2017-10-20T09:42:53.600Z,18.2
2017-10-20T09:43:56.045Z,18.3
2017-10-20T09:44:58.489Z,18.2
2017-10-20T09:46:00.939Z,18.3
2017-10-20T09:47:03.406Z,18.3
2017-10-20T09:48:06.216Z,18.2
2017-10-20T09:49:08.991Z,18.2
2017-10-20T09:50:11.427Z,18.2
2017-10-20T09:51:13.872Z,18.2
2017-10-20T09:52:16.320Z,18.2
2017-10-20T09:53:18.752Z,18.2
2017-10-20T09:54:21.182Z,18.2
2017-10-20T09:55:23.614Z,18.2
2017-10-20T09:56:26.055Z,18.2
2017-10-20T09:57:28.492Z,18.2
2017-10-20T09:58:30.920Z,18.2
2017-10-20T09:59:33.364Z,18.2
2017-10-20T10:00:36.146Z,18.2
2017-10-20T10:01:38.581Z,18.2
2017-10-20T10:02:41.018Z,18.2
2017-10-20T10:03:43.808Z,18.2
2017-10-20T10:04:46.635Z,18.2
2017-10-20T10:05:49.127Z,18.2
2017-10-20T10:06:51.548Z,18.1
2017-10-20T10:07:53.979Z,18.2
2017-10-20T10:08:56.412Z,18.1
2017-10-20T10:09:59.237Z,18.1
2017-10-20T10:11:01.659Z,18.1
2017-10-20T10:12:04.093Z,18.1
2017-10-20T10:13:06.626Z,18.1
2017-10-20T10:14:09.052Z,18.1
2017-10-20T10:15:11.654Z,18.1
2017-10-20T10:16:14.089Z,18.1
2017-10-20T10:17:16.516Z,18.1
2017-10-20T10:18:18.960Z,18.1
2017-10-20T10:19:21.393Z,18.1
2017-10-20T10:20:23.950Z,18.1
2017-10-20T10:21:26.388Z,18.1
2017-10-20T10:22:28.826Z,18.1
2017-10-20T10:23:31.256Z,18.1
2017-10-20T10:24:34.213Z,18.1
2017-10-20T10:25:36.994Z,18.2
2017-10-20T10:26:39.661Z,18.1
2017-10-20T10:27:42.492Z,18.2
2017-10-20T10:28:44.917Z,18.2
2017-10-20T10:29:47.463Z,18.2
2017-10-20T10:30:49.904Z,18.2
2017-10-20T10:31:52.427Z,18.2
2017-10-20T10:32:54.850Z,18.2
2017-10-20T10:33:57.291Z,18.3
2017-10-20T10:34:59.868Z,18.3
2017-10-20T10:36:02.303Z,18.3
2017-10-20T10:37:04.744Z,18.3
2017-10-20T10:38:07.184Z,18.3
2017-10-20T10:39:09.605Z,18.3
2017-10-20T10:40:12.245Z,18.3
2017-10-20T10:41:14.677Z,18.3
2017-10-20T10:42:17.117Z,18.3
2017-10-20T10:43:19.550Z,18.4
2017-10-20T10:44:22.217Z,18.4
2017-10-20T10:45:24.640Z,18.4
2017-10-20T10:46:27.085Z,18.4
2017-10-20T10:47:29.669Z,18.4
2017-10-20T10:48:32.103Z,18.4
2017-10-20T10:49:34.615Z,18.5
2017-10-20T10:50:37.057Z,18.5
2017-10-20T10:51:39.496Z,18.5
2017-10-20T10:52:42.083Z,18.5
2017-10-20T10:53:44.847Z,18.5
2017-10-20T10:54:47.291Z,18.6
2017-10-20T10:55:50.095Z,18.6
2017-10-20T10:56:52.903Z,18.6
2017-10-20T10:57:55.701Z,18.6
2017-10-20T10:58:58.235Z,18.6
2017-10-20T11:00:01.022Z,18.6
2017-10-20T11:01:03.455Z,18.6
2017-10-20T11:02:06.248Z,18.7
2017-10-20T11:03:08.903Z,18.7
2017-10-20T11:04:11.349Z,18.7
2017-10-20T11:05:13.786Z,18.7
2017-10-20T11:06:16.333Z,18.7
2017-10-20T11:07:19.503Z,18.8
2017-10-20T11:08:22.150Z,18.8
2017-10-20T11:09:24.576Z,18.8
2017-10-20T11:10:27.005Z,18.8
2017-10-20T11:11:29.432Z,18.8
2017-10-20T11:12:31.875Z,18.8
2017-10-20T11:13:34.555Z,18.8
2017-10-20T11:14:37.344Z,18.8
2017-10-20T11:15:39.950Z,18.8
2017-10-20T11:16:42.385Z,18.8
2017-10-20T11:17:45.191Z,18.8
2017-10-20T11:18:47.629Z,18.8
2017-10-20T11:19:50.097Z,18.8
2017-10-20T11:20:52.576Z,18.8
2017-10-20T11:21:55.002Z,18.8
2017-10-20T11:22:57.449Z,18.9
2017-10-20T11:23:59.885Z,18.9
2017-10-20T11:25:02.437Z,18.9
2017-10-20T11:26:04.861Z,18.9
2017-10-20T11:27:07.307Z,18.9
2017-10-20T11:28:09.863Z,18.9
2017-10-20T11:29:12.306Z,19
2017-10-20T11:30:14.834Z,19
2017-10-20T11:31:17.257Z,19
2017-10-20T11:32:19.697Z,19
2017-10-20T11:33:22.265Z,19
2017-10-20T11:34:24.698Z,19
2017-10-20T11:35:27.131Z,19
2017-10-20T11:36:29.566Z,19.1
2017-10-20T11:37:32.186Z,19
2017-10-20T11:38:34.992Z,19.1
2017-10-20T11:39:37.838Z,19.1
2017-10-20T11:40:40.268Z,19.1
2017-10-20T11:41:42.706Z,19.2
2017-10-20T11:42:45.133Z,19.2
2017-10-20T11:43:48.310Z,19.2
2017-10-20T11:44:51.266Z,19.3
2017-10-20T11:45:53.794Z,19.3
2017-10-20T11:46:56.227Z,19.4
2017-10-20T11:47:58.662Z,19.4
2017-10-20T11:49:01.100Z,19.4
2017-10-20T11:50:03.554Z,19.4
2017-10-20T11:51:06.957Z,19.5
2017-10-20T11:52:11.392Z,19.4
2017-10-20T11:53:20.067Z,19.5
2017-10-20T11:54:27.605Z,19.5
2017-10-20T11:55:36.661Z,19.6
2017-10-20T11:56:43.139Z,19.6
2017-10-20T11:57:49.975Z,19.6
2017-10-20T11:59:00.370Z,19.6
2017-10-20T12:00:03.752Z,19.6
2017-10-20T12:01:06.338Z,19.5
2017-10-20T12:02:09.136Z,19.5
2017-10-20T12:03:11.595Z,19.5
2017-10-20T12:04:14.352Z,19.5
2017-10-20T12:05:17.046Z,19.5
2017-10-20T12:06:21.225Z,19.5
2017-10-20T12:07:24.062Z,19.5
2017-10-20T12:08:27.797Z,19.5
2017-10-20T12:09:32.856Z,19.4
2017-10-20T12:10:37.172Z,19.5
2017-10-20T12:11:42.432Z,19.5
2017-10-20T12:12:46.217Z,19.5
2017-10-20T12:13:52.364Z,19.5
2017-10-20T12:14:57.346Z,19.5
2017-10-20T12:16:02.985Z,19.5
2017-10-20T12:17:09.853Z,19.5
2017-10-20T12:18:16.625Z,19.5
2017-10-20T12:19:22.807Z,19.5
2017-10-20T12:20:28.127Z,19.5
2017-10-20T12:21:31.085Z,19.5
2017-10-20T12:22:35.510Z,19.5
2017-10-20T12:23:41.126Z,19.5
2017-10-20T12:24:49.218Z,19.5
2017-10-20T12:25:55.078Z,19.5
2017-10-20T12:26:59.419Z,19.5
2017-10-20T12:28:01.868Z,19.5
2017-10-20T12:29:04.250Z,19.4
2017-10-20T12:30:06.630Z,19.5
2017-10-20T12:31:22.287Z,19.5
2017-10-20T12:32:24.716Z,19.5
2017-10-20T12:33:27.156Z,19.4
2017-10-20T12:34:29.600Z,19.5
2017-10-20T12:35:32.036Z,19.4
2017-10-20T12:36:34.474Z,19.5
2017-10-20T12:37:36.911Z,19.4
2017-10-20T12:38:39.377Z,19.5
2017-10-20T12:39:41.810Z,19.5
2017-10-20T12:40:44.245Z,19.5
2017-10-20T12:41:47.056Z,19.5
2017-10-20T12:42:49.494Z,19.5
2017-10-20T12:43:51.947Z,19.5
2017-10-20T12:44:54.389Z,19.5
2017-10-20T12:45:56.839Z,19.5
2017-10-20T12:46:59.318Z,19.5
2017-10-20T12:48:01.755Z,19.5
2017-10-20T12:49:04.563Z,19.5
2017-10-20T12:50:07.381Z,19.5
2017-10-20T12:51:09.817Z,19.5
2017-10-20T12:52:12.261Z,19.4
2017-10-20T12:53:14.723Z,19.4
2017-10-20T12:54:17.522Z,19.4
2017-10-20T12:55:19.962Z,19.4
2017-10-20T12:56:22.414Z,19.4
2017-10-20T12:57:24.860Z,19.4
2017-10-20T12:58:27.293Z,19.5
2017-10-20T12:59:29.770Z,19.5
2017-10-20T13:00:32.568Z,19.5
2017-10-20T13:01:35.037Z,19.5
2017-10-20T13:02:37.479Z,19.5
2017-10-20T13:03:39.908Z,19.5
2017-10-20T13:04:42.352Z,19.5
2017-10-20T13:05:45.164Z,19.5
2017-10-20T13:06:47.599Z,19.5
2017-10-20T13:07:50.586Z,19.5
2017-10-20T13:08:53.017Z,19.5
2017-10-20T13:09:55.479Z,19.5
2017-10-20T13:10:57.907Z,19.5
2017-10-20T13:12:00.367Z,19.5
2017-10-20T13:13:02.814Z,19.5
2017-10-20T13:14:05.259Z,19.5
2017-10-20T13:15:07.699Z,19.5
2017-10-20T13:16:10.825Z,19.5
2017-10-20T13:17:13.228Z,19.5
2017-10-20T13:18:15.617Z,19.5
2017-10-20T13:19:18.112Z,19.5
2017-10-20T13:20:20.706Z,19.5
2017-10-20T13:21:23.104Z,19.5
2017-10-20T13:22:25.485Z,19.5
2017-10-20T13:23:27.855Z,19.5
2017-10-20T13:24:30.241Z,19.5
2017-10-20T13:25:32.616Z,19.5
2017-10-20T13:26:34.996Z,19.5
2017-10-20T13:27:37.395Z,19.5
2017-10-20T13:28:39.769Z,19.5
2017-10-20T13:29:43.011Z,19.5
2017-10-20T13:30:45.608Z,19.5
2017-10-20T13:31:48.375Z,19.5
2017-10-20T13:32:50.765Z,19.5
2017-10-20T13:33:53.144Z,19.5
2017-10-20T13:34:55.537Z,19.5
2017-10-20T13:35:57.923Z,19.5
2017-10-20T13:37:00.299Z,19.5
2017-10-20T13:38:02.683Z,19.5
2017-10-20T13:39:05.071Z,19.5
2017-10-20T13:40:07.445Z,19.5
2017-10-20T13:41:10.175Z,19.5
2017-10-20T13:42:12.563Z,19.5
2017-10-20T13:43:14.961Z,19.5
2017-10-20T13:44:17.769Z,19.5
2017-10-20T13:45:20.204Z,19.5
2017-10-20T13:46:22.628Z,19.4
2017-10-20T13:47:25.065Z,19.4
2017-10-20T13:48:27.515Z,19.4
2017-10-20T13:49:29.949Z,19.3
2017-10-20T13:50:33.240Z,19.3
2017-10-20T13:51:35.687Z,19.3
2017-10-20T13:52:38.482Z,19.3
2017-10-20T13:53:40.950Z,19.2
2017-10-20T13:54:43.439Z,19.2
2017-10-20T13:55:45.887Z,19.2
2017-10-20T13:56:48.341Z,19.2
2017-10-20T13:57:50.774Z,19.1
2017-10-20T13:58:53.227Z,19.1
2017-10-20T13:59:55.734Z,19.1
2017-10-20T14:00:58.159Z,19